Morning Camilla — H3LJ — position and weather

sailwx.info

Track history (hours):
 
Tides and Currents Weather Stations Pressure Air Temp Water Temp Dewpoint Dewpoint Depression Visibility Wind Speed Wind Dir Waves Ship Positions

Morning Camilla

Last reported at 2018-Feb-14 05:12 UTC. Time now 2018-Feb-24 18:06 UTC.
Position N 31°23' E 032°20'.
Warning: this ship's position is 10 days out of date.

Length 199 m; draft 8.9 m.

Type: Cargo ship. MMSI: 370299000.

Date/timePositionNaut miles runAvg speedWind from/ knotsBaromVisibWave heightAir tempDewpointWater temp
2018-Feb-14 05:12N 31°23' E 032°20'0 0.0
2018-Feb-13 23:16N 31°23' E 032°20'0 0.0
2018-Feb-13 23:00N 31°23' E 032°20'0 0.0
2018-Feb-13 22:30N 31°23' E 032°20'  
2018-Feb-11 11:50N 36°15' E 014°54'718.6
2018-Feb-11 11:29N 36°16' E 014°46'918.6
2018-Feb-11 11:00N 36°19' E 014°35'918.6
2018-Feb-11 10:30N 36°21' E 014°24'918.4
2018-Feb-11 10:00N 36°23' E 014°13'918.6
2018-Feb-11 09:30N 36°25' E 014°02'918.8
2018-Feb-11 09:00N 36°28' E 013°50'918.6
2018-Feb-11 08:29N 36°30' E 013°39'  
2018-Feb-09 04:00N 35°59' W 005°21'612.8
2018-Feb-09 03:30N 35°57' W 005°28'4212.1
2018-Feb-09 00:00N 35°53' W 006°20'22814.3
2018-Feb-08 08:00N 38°21' W 009°59'816.3
2018-Feb-08 07:30N 38°28' W 010°02'1616.3
2018-Feb-08 06:30N 38°44' W 010°07'816.2
2018-Feb-08 06:00N 38°52' W 010°07'816.0
2018-Feb-08 05:30N 39°00' W 010°07'70115.2
2018-Feb-06 07:31N 49°44' W 003°37'016.6
2018-Feb-06 07:30N 49°44' W 003°37'816.9
2018-Feb-06 07:00N 49°48' W 003°25'917.7
2018-Feb-06 06:28N 49°52' W 003°12'918.4
2018-Feb-06 06:00N 49°57' W 003°01'918.9
2018-Feb-06 05:30N 50°01' W 002°48'2519.3
2018-Feb-06 04:13N 50°10' W 002°12'418.8
2018-Feb-06 04:00N 50°12' W 002°06'918.3
2018-Feb-06 03:30N 50°16' W 001°53'917.5
2018-Feb-06 03:00N 50°20' W 001°41'816.6
2018-Feb-06 02:30N 50°24' W 001°29'916.0
2018-Feb-06 01:57N 50°28' W 001°17'714.9
2018-Feb-06 01:30N 50°31' W 001°08'713.6
2018-Feb-06 01:00N 50°35' W 000°59'611.5
2018-Feb-06 00:30N 50°41' W 000°58'2110.3
2018-Feb-05 22:30N 50°53' W 001°24'0 0.7
2018-Feb-05 21:59N 50°53' W 001°24'0 0.0
2018-Feb-05 21:29N 50°53' W 001°24'0 0.0
2018-Feb-05 20:59N 50°53' W 001°24'0 0.0
2018-Feb-05 20:29N 50°54' W 001°24'0 0.0
2018-Feb-05 19:59N 50°53' W 001°24'0 0.0
2018-Feb-05 19:29N 50°54' W 001°24'0 0.0
2018-Feb-05 18:59N 50°53' W 001°24'0 0.0
2018-Feb-05 18:29N 50°53' W 001°24'0 0.0
2018-Feb-05 17:59N 50°53' W 001°24'0 0.0
2018-Feb-05 17:29N 50°53' W 001°24'0 0.0
2018-Feb-05 16:59N 50°53' W 001°24'0 0.0
2018-Feb-05 16:29N 50°53' W 001°24'0 0.0
2018-Feb-05 15:59N 50°53' W 001°24'0 0.0
2018-Feb-05 15:29N 50°53' W 001°24'0 0.0
2018-Feb-05 14:59N 50°53' W 001°24'0 0.0
2018-Feb-05 14:29N 50°53' W 001°24'0 0.0
2018-Feb-05 13:59N 50°54' W 001°24'0 0.0
2018-Feb-05 13:29N 50°54' W 001°24'0 0.0
2018-Feb-05 12:59N 50°53' W 001°24'0 0.0
2018-Feb-05 12:29N 50°53' W 001°24'0 0.0
2018-Feb-05 11:59N 50°53' W 001°24'0 0.0
2018-Feb-05 11:29N 50°54' W 001°24'0 0.0
2018-Feb-05 10:59N 50°54' W 001°24'0 0.0
2018-Feb-05 10:29N 50°54' W 001°24'0 0.0
2018-Feb-05 09:59N 50°53' W 001°24'0 0.0
2018-Feb-05 09:29N 50°53' W 001°24'0 0.0
2018-Feb-05 08:59N 50°53' W 001°24'0 0.0
2018-Feb-05 08:29N 50°53' W 001°24'0 0.0
2018-Feb-05 07:59N 50°54' W 001°24'0 0.0
2018-Feb-05 07:29N 50°53' W 001°24'0 0.8
2018-Feb-05 07:01N 50°53' W 001°24'3 5.1
2018-Feb-05 06:30N 50°51' W 001°21'7 6.5
2018-Feb-05 05:30N 50°46' W 001°15'714.5
2018-Feb-05 05:00N 50°44' W 001°04'5 9.9
2018-Feb-05 04:30N 50°40' W 000°59'3 5.6
2018-Feb-05 04:00N 50°37' W 000°59'4 9.0
2018-Feb-05 03:30N 50°33' W 000°56'611.1
2018-Feb-05 02:58N 50°31' W 000°48'611.6
2018-Feb-05 02:28N 50°30' W 000°38'2 5.4
2018-Feb-05 02:00N 50°31' W 000°35'1 1.3
2018-Feb-05 01:30N 50°30' W 000°34'0 0.5
2018-Feb-05 01:00N 50°30' W 000°33'0 0.7
2018-Feb-05 00:30N 50°30' W 000°34'0 0.9
2018-Feb-05 00:00N 50°30' W 000°34'0 0.9
2018-Feb-04 23:30N 50°29' W 000°35'1 1.0
2018-Feb-04 23:00N 50°29' W 000°35'0 0.6
2018-Feb-04 22:29N 50°29' W 000°35'1 1.3
2018-Feb-04 22:00N 50°29' W 000°36'1 1.4
2018-Feb-04 21:30N 50°30' W 000°36'1 1.5
2018-Feb-04 21:00N 50°30' W 000°37'2 2.0
2018-Feb-04 20:00N 50°32' W 000°36'1 1.1
2018-Feb-04 19:30N 50°33' W 000°36'4 7.8
2018-Feb-04 19:00N 50°30' W 000°41'3 6.1
2018-Feb-04 18:30N 50°28' W 000°45'2 3.8
2018-Feb-04 18:00N 50°30' W 000°42'2 4.0
2018-Feb-04 17:30N 50°31' W 000°40'18 9.2
2018-Feb-04 15:30N 50°32' W 000°11'918.0
2018-Feb-04 15:00N 50°33' E 000°03'917.5
2018-Feb-04 14:30N 50°35' E 000°16'817.0
2018-Feb-04 14:00N 50°38' E 000°29'816.3
2018-Feb-04 13:30N 50°41' E 000°40'816.3
2018-Feb-04 13:00N 50°46' E 000°51'816.1
2018-Feb-04 12:29N 50°51' E 001°02'816.5
2018-Feb-04 12:00N 50°56' E 001°12'816.9
2018-Feb-04 11:31N 51°01' E 001°22'2416.1
2018-Feb-04 10:00N 51°17' E 001°50'1514.7
2018-Feb-04 09:01N 51°30' E 002°03'815.9
2018-Feb-04 08:30N 51°36' E 002°11'917.2
2018-Feb-04 08:01N 51°43' E 002°20'  
Track history (hours):
 
Tides and Currents Weather Stations Pressure Air Temp Water Temp Dewpoint Dewpoint Depression Visibility Wind Speed Wind Dir Waves Ship Positions

Morning Camilla

Last reported at 2018-Feb-14 05:12 UTC. Time now 2018-Feb-24 18:06 UTC.
Position N 31°23' E 032°20'.
Warning: this ship's position is 10 days out of date.

Length 199 m; draft 8.9 m.

Type: Cargo ship. MMSI: 370299000.

Date/timePositionNaut miles runAvg speedWind from/ knotsBaromVisibWave heightAir tempDewpointWater temp
2018-Feb-14 05:12N 31°23' E 032°20'0 0.0
2018-Feb-13 23:16N 31°23' E 032°20'0 0.0
2018-Feb-13 23:00N 31°23' E 032°20'0 0.0
2018-Feb-13 22:30N 31°23' E 032°20'  
2018-Feb-11 11:50N 36°15' E 014°54'718.6
2018-Feb-11 11:29N 36°16' E 014°46'918.6
2018-Feb-11 11:00N 36°19' E 014°35'918.6
2018-Feb-11 10:30N 36°21' E 014°24'918.4
2018-Feb-11 10:00N 36°23' E 014°13'918.6
2018-Feb-11 09:30N 36°25' E 014°02'918.8
2018-Feb-11 09:00N 36°28' E 013°50'918.6
2018-Feb-11 08:29N 36°30' E 013°39'  
2018-Feb-09 04:00N 35°59' W 005°21'612.8
2018-Feb-09 03:30N 35°57' W 005°28'4212.1
2018-Feb-09 00:00N 35°53' W 006°20'22814.3
2018-Feb-08 08:00N 38°21' W 009°59'816.3
2018-Feb-08 07:30N 38°28' W 010°02'1616.3
2018-Feb-08 06:30N 38°44' W 010°07'816.2
2018-Feb-08 06:00N 38°52' W 010°07'816.0
2018-Feb-08 05:30N 39°00' W 010°07'70115.2
2018-Feb-06 07:31N 49°44' W 003°37'016.6
2018-Feb-06 07:30N 49°44' W 003°37'816.9
2018-Feb-06 07:00N 49°48' W 003°25'917.7
2018-Feb-06 06:28N 49°52' W 003°12'918.4
2018-Feb-06 06:00N 49°57' W 003°01'918.9
2018-Feb-06 05:30N 50°01' W 002°48'2519.3
2018-Feb-06 04:13N 50°10' W 002°12'418.8
2018-Feb-06 04:00N 50°12' W 002°06'918.3
2018-Feb-06 03:30N 50°16' W 001°53'917.5
2018-Feb-06 03:00N 50°20' W 001°41'816.6
2018-Feb-06 02:30N 50°24' W 001°29'916.0
2018-Feb-06 01:57N 50°28' W 001°17'714.9
2018-Feb-06 01:30N 50°31' W 001°08'713.6
2018-Feb-06 01:00N 50°35' W 000°59'611.5
2018-Feb-06 00:30N 50°41' W 000°58'2110.3
2018-Feb-05 22:30N 50°53' W 001°24'0 0.7
2018-Feb-05 21:59N 50°53' W 001°24'0 0.0
2018-Feb-05 21:29N 50°53' W 001°24'0 0.0
2018-Feb-05 20:59N 50°53' W 001°24'0 0.0
2018-Feb-05 20:29N 50°54' W 001°24'0 0.0
2018-Feb-05 19:59N 50°53' W 001°24'0 0.0
2018-Feb-05 19:29N 50°54' W 001°24'0 0.0
2018-Feb-05 18:59N 50°53' W 001°24'0 0.0
2018-Feb-05 18:29N 50°53' W 001°24'0 0.0
2018-Feb-05 17:59N 50°53' W 001°24'0 0.0
2018-Feb-05 17:29N 50°53' W 001°24'0 0.0
2018-Feb-05 16:59N 50°53' W 001°24'0 0.0
2018-Feb-05 16:29N 50°53' W 001°24'0 0.0
2018-Feb-05 15:59N 50°53' W 001°24'0 0.0
2018-Feb-05 15:29N 50°53' W 001°24'0 0.0
2018-Feb-05 14:59N 50°53' W 001°24'0 0.0
2018-Feb-05 14:29N 50°53' W 001°24'0 0.0
2018-Feb-05 13:59N 50°54' W 001°24'0 0.0
2018-Feb-05 13:29N 50°54' W 001°24'0 0.0
2018-Feb-05 12:59N 50°53' W 001°24'0 0.0
2018-Feb-05 12:29N 50°53' W 001°24'0 0.0
2018-Feb-05 11:59N 50°53' W 001°24'0 0.0
2018-Feb-05 11:29N 50°54' W 001°24'0 0.0
2018-Feb-05 10:59N 50°54' W 001°24'0 0.0
2018-Feb-05 10:29N 50°54' W 001°24'0 0.0
2018-Feb-05 09:59N 50°53' W 001°24'0 0.0
2018-Feb-05 09:29N 50°53' W 001°24'0 0.0
2018-Feb-05 08:59N 50°53' W 001°24'0 0.0
2018-Feb-05 08:29N 50°53' W 001°24'0 0.0
2018-Feb-05 07:59N 50°54' W 001°24'0 0.0
2018-Feb-05 07:29N 50°53' W 001°24'0 0.8
2018-Feb-05 07:01N 50°53' W 001°24'3 5.1
2018-Feb-05 06:30N 50°51' W 001°21'7 6.5
2018-Feb-05 05:30N 50°46' W 001°15'714.5
2018-Feb-05 05:00N 50°44' W 001°04'5 9.9
2018-Feb-05 04:30N 50°40' W 000°59'3 5.6
2018-Feb-05 04:00N 50°37' W 000°59'4 9.0
2018-Feb-05 03:30N 50°33' W 000°56'611.1
2018-Feb-05 02:58N 50°31' W 000°48'611.6
2018-Feb-05 02:28N 50°30' W 000°38'2 5.4
2018-Feb-05 02:00N 50°31' W 000°35'1 1.3
2018-Feb-05 01:30N 50°30' W 000°34'0 0.5
2018-Feb-05 01:00N 50°30' W 000°33'0 0.7
2018-Feb-05 00:30N 50°30' W 000°34'0 0.9
2018-Feb-05 00:00N 50°30' W 000°34'0 0.9
2018-Feb-04 23:30N 50°29' W 000°35'1 1.0
2018-Feb-04 23:00N 50°29' W 000°35'0 0.6
2018-Feb-04 22:29N 50°29' W 000°35'1 1.3
2018-Feb-04 22:00N 50°29' W 000°36'1 1.4
2018-Feb-04 21:30N 50°30' W 000°36'1 1.5
2018-Feb-04 21:00N 50°30' W 000°37'2 2.0
2018-Feb-04 20:00N 50°32' W 000°36'1 1.1
2018-Feb-04 19:30N 50°33' W 000°36'4 7.8
2018-Feb-04 19:00N 50°30' W 000°41'3 6.1
2018-Feb-04 18:30N 50°28' W 000°45'2 3.8
2018-Feb-04 18:00N 50°30' W 000°42'2 4.0
2018-Feb-04 17:30N 50°31' W 000°40'18 9.2
2018-Feb-04 15:30N 50°32' W 000°11'918.0
2018-Feb-04 15:00N 50°33' E 000°03'917.5
2018-Feb-04 14:30N 50°35' E 000°16'817.0
2018-Feb-04 14:00N 50°38' E 000°29'816.3
2018-Feb-04 13:30N 50°41' E 000°40'816.3
2018-Feb-04 13:00N 50°46' E 000°51'816.1
2018-Feb-04 12:29N 50°51' E 001°02'816.5
2018-Feb-04 12:00N 50°56' E 001°12'816.9
2018-Feb-04 11:31N 51°01' E 001°22'2416.1
2018-Feb-04 10:00N 51°17' E 001°50'1514.7
2018-Feb-04 09:01N 51°30' E 002°03'815.9
2018-Feb-04 08:30N 51°36' E 002°11'917.2
2018-Feb-04 08:01N 51°43' E 002°20'  

Dump ship's entire track history